sensor_id;sensor_type;location;lat;lon;timestamp;pressure;altitude;pressure_sealevel;temperature;humidity
71559;BME280;59382;43.852;25.952;2023-05-01T00:02:09;101144.03;;;17.75;50.13
71559;BME280;59382;43.852;25.952;2023-05-01T00:04:35;101153.69;;;17.82;50.25
71559;BME280;59382;43.852;25.952;2023-05-01T00:07:01;101149.53;;;17.80;50.46
71559;BME280;59382;43.852;25.952;2023-05-01T00:09:27;101135.84;;;17.75;50.38
71559;BME280;59382;43.852;25.952;2023-05-01T00:11:52;101146.00;;;17.79;50.44
71559;BME280;59382;43.852;25.952;2023-05-01T00:14:18;101147.91;;;17.79;50.60
71559;BME280;59382;43.852;25.952;2023-05-01T00:16:43;101153.25;;;17.74;50.63
71559;BME280;59382;43.852;25.952;2023-05-01T00:19:11;101149.38;;;17.70;50.58
71559;BME280;59382;43.852;25.952;2023-05-01T00:21:37;101154.78;;;17.65;50.85
71559;BME280;59382;43.852;25.952;2023-05-01T00:24:02;101150.78;;;17.55;51.04
71559;BME280;59382;43.852;25.952;2023-05-01T00:26:28;101147.47;;;17.53;50.96
71559;BME280;59382;43.852;25.952;2023-05-01T00:28:55;101143.50;;;17.44;50.98
71559;BME280;59382;43.852;25.952;2023-05-01T00:31:23;101157.78;;;17.51;50.97
71559;BME280;59382;43.852;25.952;2023-05-01T00:33:48;101146.81;;;17.46;51.09
71559;BME280;59382;43.852;25.952;2023-05-01T00:36:14;101169.31;;;17.53;51.46
71559;BME280;59382;43.852;25.952;2023-05-01T00:38:39;101150.09;;;17.48;51.19
71559;BME280;59382;43.852;25.952;2023-05-01T00:41:05;101163.50;;;17.50;51.12
71559;BME280;59382;43.852;25.952;2023-05-01T00:43:30;101160.22;;;17.48;51.34
71559;BME280;59382;43.852;25.952;2023-05-01T00:45:56;101161.50;;;17.45;51.47
71559;BME280;59382;43.852;25.952;2023-05-01T00:48:22;101176.69;;;17.41;51.29
71559;BME280;59382;43.852;25.952;2023-05-01T00:50:47;101177.19;;;17.38;51.21
71559;BME280;59382;43.852;25.952;2023-05-01T00:53:13;101168.22;;;17.26;51.51
71559;BME280;59382;43.852;25.952;2023-05-01T00:55:41;101180.78;;;17.27;51.63
71559;BME280;59382;43.852;25.952;2023-05-01T00:58:07;101172.16;;;17.19;51.54
71559;BME280;59382;43.852;25.952;2023-05-01T01:00:34;101164.03;;;17.07;51.62
71559;BME280;59382;43.852;25.952;2023-05-01T01:03:00;101175.84;;;17.13;51.75
71559;BME280;59382;43.852;25.952;2023-05-01T01:05:27;101185.38;;;17.10;51.77
71559;BME280;59382;43.852;25.952;2023-05-01T01:08:04;101189.97;;;17.10;51.93
71559;BME280;59382;43.852;25.952;2023-05-01T01:10:39;101183.25;;;17.01;51.92
71559;BME280;59382;43.852;25.952;2023-05-01T01:13:15;101191.31;;;17.07;51.85
71559;BME280;59382;43.852;25.952;2023-05-01T01:15:49;101203.38;;;17.11;51.91
71559;BME280;59382;43.852;25.952;2023-05-01T01:18:32;101193.66;;;17.15;51.55
71559;BME280;59382;43.852;25.952;2023-05-01T01:26:46;101188.69;;;17.01;51.80
71559;BME280;59382;43.852;25.952;2023-05-01T01:34:53;101200.34;;;16.96;51.80
71559;BME280;59382;43.852;25.952;2023-05-01T01:37:23;101205.59;;;16.86;52.11
71559;BME280;59382;43.852;25.952;2023-05-01T01:40:10;101209.50;;;16.79;52.53
71559;BME280;59382;43.852;25.952;2023-05-01T01:42:42;101203.00;;;16.68;52.52
71559;BME280;59382;43.852;25.952;2023-05-01T01:45:18;101208.81;;;16.72;52.57
71559;BME280;59382;43.852;25.952;2023-05-01T01:47:46;101201.59;;;16.66;52.72
71559;BME280;59382;43.852;25.952;2023-05-01T01:50:13;101221.72;;;16.76;52.64
71559;BME280;59382;43.852;25.952;2023-05-01T01:52:41;101218.16;;;16.76;52.66
71559;BME280;59382;43.852;25.952;2023-05-01T01:55:10;101218.53;;;16.79;52.56
71559;BME280;59382;43.852;25.952;2023-05-01T01:57:37;101214.63;;;16.75;52.63
71559;BME280;59382;43.852;25.952;2023-05-01T02:00:05;101246.09;;;16.94;52.72
71559;BME280;59382;43.852;25.952;2023-05-01T02:02:34;101234.00;;;16.90;53.11
71559;BME280;59382;43.852;25.952;2023-05-01T02:05:02;101233.53;;;16.93;52.87
71559;BME280;59382;43.852;25.952;2023-05-01T02:07:29;101247.28;;;16.98;52.97
71559;BME280;59382;43.852;25.952;2023-05-01T02:09:57;101240.06;;;16.92;53.10
71559;BME280;59382;43.852;25.952;2023-05-01T02:12:24;101248.94;;;16.99;53.43
71559;BME280;59382;43.852;25.952;2023-05-01T02:14:52;101238.97;;;16.93;53.32
71559;BME280;59382;43.852;25.952;2023-05-01T02:17:19;101237.69;;;16.96;53.34
71559;BME280;59382;43.852;25.952;2023-05-01T02:19:45;101235.06;;;17.01;53.34
71559;BME280;59382;43.852;25.952;2023-05-01T02:22:12;101256.75;;;17.07;53.36
71559;BME280;59382;43.852;25.952;2023-05-01T02:24:41;101239.69;;;17.00;53.52
71559;BME280;59382;43.852;25.952;2023-05-01T02:27:16;101250.44;;;17.07;53.39
71559;BME280;59382;43.852;25.952;2023-05-01T02:29:44;101258.38;;;17.08;53.15
71559;BME280;59382;43.852;25.952;2023-05-01T02:32:11;101260.56;;;17.06;53.21
71559;BME280;59382;43.852;25.952;2023-05-01T02:34:36;101279.72;;;17.11;53.29
71559;BME280;59382;43.852;25.952;2023-05-01T02:37:03;101274.75;;;17.08;53.40
71559;BME280;59382;43.852;25.952;2023-05-01T02:39:30;101271.47;;;17.06;53.58
71559;BME280;59382;43.852;25.952;2023-05-01T02:41:57;101279.88;;;17.05;53.88
71559;BME280;59382;43.852;25.952;2023-05-01T02:44:26;101285.66;;;17.08;53.96
71559;BME280;59382;43.852;25.952;2023-05-01T02:46:54;101277.97;;;17.05;53.84
71559;BME280;59382;43.852;25.952;2023-05-01T02:49:21;101264.13;;;16.95;53.62
71559;BME280;59382;43.852;25.952;2023-05-01T02:51:47;101284.13;;;17.01;53.81
71559;BME280;59382;43.852;25.952;2023-05-01T02:54:13;101282.84;;;17.03;53.84
71559;BME280;59382;43.852;25.952;2023-05-01T02:56:40;101270.03;;;16.92;53.88
71559;BME280;59382;43.852;25.952;2023-05-01T02:59:06;101289.25;;;16.97;53.78
71559;BME280;59382;43.852;25.952;2023-05-01T03:01:32;101273.13;;;16.84;53.85
71559;BME280;59382;43.852;25.952;2023-05-01T03:03:57;101281.91;;;16.86;54.10
71559;BME280;59382;43.852;25.952;2023-05-01T03:06:23;101272.56;;;16.71;54.08
71559;BME280;59382;43.852;25.952;2023-05-01T03:08:48;101248.50;;;16.45;54.18
71559;BME280;59382;43.852;25.952;2023-05-01T03:11:14;101276.69;;;16.50;54.33
71559;BME280;59382;43.852;25.952;2023-05-01T03:13:39;101286.56;;;16.51;54.43
71559;BME280;59382;43.852;25.952;2023-05-01T03:16:05;101286.72;;;16.38;54.69
71559;BME280;59382;43.852;25.952;2023-05-01T03:18:31;101272.88;;;16.28;54.71
71559;BME280;59382;43.852;25.952;2023-05-01T03:20:57;101278.06;;;16.18;54.93
71559;BME280;59382;43.852;25.952;2023-05-01T03:23:22;101284.34;;;16.19;55.10
71559;BME280;59382;43.852;25.952;2023-05-01T03:25:49;101298.19;;;16.17;55.13
71559;BME280;59382;43.852;25.952;2023-05-01T03:28:14;101302.91;;;16.10;55.07
71559;BME280;59382;43.852;25.952;2023-05-01T03:30:41;101310.50;;;16.08;55.25
71559;BME280;59382;43.852;25.952;2023-05-01T03:33:06;101297.06;;;15.95;55.34
71559;BME280;59382;43.852;25.952;2023-05-01T03:35:32;101287.09;;;15.89;55.38
71559;BME280;59382;43.852;25.952;2023-05-01T03:37:58;101310.91;;;15.94;55.09
71559;BME280;59382;43.852;25.952;2023-05-01T03:40:23;101309.47;;;15.91;55.27
71559;BME280;59382;43.852;25.952;2023-05-01T03:42:49;101312.81;;;15.93;55.33
71559;BME280;59382;43.852;25.952;2023-05-01T03:45:14;101322.78;;;15.99;55.18
71559;BME280;59382;43.852;25.952;2023-05-01T03:47:40;101325.84;;;16.03;55.16
71559;BME280;59382;43.852;25.952;2023-05-01T03:50:06;101334.38;;;16.06;54.94
71559;BME280;59382;43.852;25.952;2023-05-01T03:52:33;101325.13;;;16.07;55.04
71559;BME280;59382;43.852;25.952;2023-05-01T03:54:58;101333.44;;;16.12;54.88
71559;BME280;59382;43.852;25.952;2023-05-01T03:57:24;101298.50;;;15.98;54.73
71559;BME280;59382;43.852;25.952;2023-05-01T03:59:49;101321.63;;;16.18;54.71
71559;BME280;59382;43.852;25.952;2023-05-01T04:02:15;101320.94;;;16.23;54.45
71559;BME280;59382;43.852;25.952;2023-05-01T04:04:40;101324.13;;;16.31;54.43
71559;BME280;59382;43.852;25.952;2023-05-01T04:07:06;101336.09;;;16.30;54.26
71559;BME280;59382;43.852;25.952;2023-05-01T04:09:31;101318.44;;;16.21;54.46
71559;BME280;59382;43.852;25.952;2023-05-01T04:11:57;101330.66;;;16.30;54.36
71559;BME280;59382;43.852;25.952;2023-05-01T04:14:23;101333.03;;;16.38;54.25
71559;BME280;59382;43.852;25.952;2023-05-01T04:16:48;101346.72;;;16.50;54.22
71559;BME280;59382;43.852;25.952;2023-05-01T04:19:16;101335.69;;;16.45;54.12
71559;BME280;59382;43.852;25.952;2023-05-01T04:21:42;101355.84;;;16.55;54.04
71559;BME280;59382;43.852;25.952;2023-05-01T04:24:07;101357.38;;;16.63;53.94
71559;BME280;59382;43.852;25.952;2023-05-01T04:26:34;101358.22;;;16.63;53.70
71559;BME280;59382;43.852;25.952;2023-05-01T04:28:59;101333.94;;;16.62;53.79
71559;BME280;59382;43.852;25.952;2023-05-01T04:31:25;101363.44;;;16.76;53.67
71559;BME280;59382;43.852;25.952;2023-05-01T04:33:51;101345.69;;;16.74;53.53
71559;BME280;59382;43.852;25.952;2023-05-01T04:36:17;101365.31;;;16.87;53.51
71559;BME280;59382;43.852;25.952;2023-05-01T04:38:43;101371.63;;;16.88;53.62
71559;BME280;59382;43.852;25.952;2023-05-01T04:41:08;101383.22;;;16.95;53.64
71559;BME280;59382;43.852;25.952;2023-05-01T04:43:34;101375.88;;;16.95;53.34
71559;BME280;59382;43.852;25.952;2023-05-01T04:45:59;101369.03;;;16.93;53.34
71559;BME280;59382;43.852;25.952;2023-05-01T04:48:25;101365.59;;;16.97;53.35
71559;BME280;59382;43.852;25.952;2023-05-01T04:50:50;101379.44;;;17.07;53.24
71559;BME280;59382;43.852;25.952;2023-05-01T04:53:16;101381.69;;;17.10;53.31
71559;BME280;59382;43.852;25.952;2023-05-01T04:55:41;101379.56;;;17.12;53.21
71559;BME280;59382;43.852;25.952;2023-05-01T04:58:07;101367.00;;;17.11;53.35
71559;BME280;59382;43.852;25.952;2023-05-01T05:00:33;101380.50;;;17.29;53.17
71559;BME280;59382;43.852;25.952;2023-05-01T05:02:58;101375.72;;;17.36;52.78
71559;BME280;59382;43.852;25.952;2023-05-01T05:05:24;101356.53;;;17.31;52.74
71559;BME280;59382;43.852;25.952;2023-05-01T05:07:49;101373.84;;;17.48;52.52
71559;BME280;59382;43.852;25.952;2023-05-01T05:10:15;101377.66;;;17.47;52.44
71559;BME280;59382;43.852;25.952;2023-05-01T05:12:40;101376.69;;;17.42;52.09
71559;BME280;59382;43.852;25.952;2023-05-01T05:15:06;101388.09;;;17.50;52.22
71559;BME280;59382;43.852;25.952;2023-05-01T05:17:32;101376.69;;;17.53;52.14
71559;BME280;59382;43.852;25.952;2023-05-01T05:19:57;101374.56;;;17.55;51.85
71559;BME280;59382;43.852;25.952;2023-05-01T05:22:23;101376.88;;;17.63;51.82
71559;BME280;59382;43.852;25.952;2023-05-01T05:24:54;101392.66;;;17.73;51.64
71559;BME280;59382;43.852;25.952;2023-05-01T05:27:20;101399.28;;;17.77;52.33
71559;BME280;59382;43.852;25.952;2023-05-01T05:29:45;101403.66;;;17.90;51.95
71559;BME280;59382;43.852;25.952;2023-05-01T05:32:11;101415.50;;;17.95;51.62
71559;BME280;59382;43.852;25.952;2023-05-01T05:34:37;101413.59;;;17.96;51.88
71559;BME280;59382;43.852;25.952;2023-05-01T05:37:03;101420.13;;;17.95;52.03
71559;BME280;59382;43.852;25.952;2023-05-01T05:39:29;101414.56;;;17.90;51.95
71559;BME280;59382;43.852;25.952;2023-05-01T05:41:56;101426.19;;;17.97;52.29
71559;BME280;59382;43.852;25.952;2023-05-01T05:44:21;101430.78;;;17.96;52.66
71559;BME280;59382;43.852;25.952;2023-05-01T05:46:47;101430.97;;;17.90;52.70
71559;BME280;59382;43.852;25.952;2023-05-01T05:49:14;101438.44;;;17.94;52.97
71559;BME280;59382;43.852;25.952;2023-05-01T05:51:39;101447.53;;;18.00;53.02
71559;BME280;59382;43.852;25.952;2023-05-01T05:54:08;101455.13;;;17.98;53.01
71559;BME280;59382;43.852;25.952;2023-05-01T05:56:33;101456.56;;;17.89;53.25
71559;BME280;59382;43.852;25.952;2023-05-01T05:59:05;101451.88;;;17.73;53.45
71559;BME280;59382;43.852;25.952;2023-05-01T06:01:30;101479.97;;;17.85;53.45
71559;BME280;59382;43.852;25.952;2023-05-01T06:04:00;101492.06;;;17.89;53.32
71559;BME280;59382;43.852;25.952;2023-05-01T06:06:25;101489.78;;;18.09;53.43
71559;BME280;59382;43.852;25.952;2023-05-01T06:08:52;101498.22;;;18.47;52.91
71559;BME280;59382;43.852;25.952;2023-05-01T06:11:17;101500.81;;;18.98;52.44
71559;BME280;59382;43.852;25.952;2023-05-01T06:13:46;101501.50;;;19.38;51.52
71559;BME280;59382;43.852;25.952;2023-05-01T06:16:12;101513.19;;;19.88;50.10
71559;BME280;59382;43.852;25.952;2023-05-01T06:18:58;101496.97;;;20.03;48.53
71559;BME280;59382;43.852;25.952;2023-05-01T06:21:24;101519.72;;;20.25;48.12
71559;BME280;59382;43.852;25.952;2023-05-01T06:23:49;101521.34;;;20.43;47.67
71559;BME280;59382;43.852;25.952;2023-05-01T06:26:15;101520.72;;;20.62;46.79
71559;BME280;59382;43.852;25.952;2023-05-01T06:28:40;101516.47;;;20.76;45.66
71559;BME280;59382;43.852;25.952;2023-05-01T06:31:06;101516.06;;;20.89;45.12
71559;BME280;59382;43.852;25.952;2023-05-01T06:33:31;101522.28;;;21.06;44.79
71559;BME280;59382;43.852;25.952;2023-05-01T06:35:58;101532.31;;;21.22;43.91
71559;BME280;59382;43.852;25.952;2023-05-01T06:38:26;101519.75;;;21.31;43.75
71559;BME280;59382;43.852;25.952;2023-05-01T06:40:52;101524.78;;;21.45;43.40
71559;BME280;59382;43.852;25.952;2023-05-01T06:43:17;101522.38;;;21.53;43.16
71559;BME280;59382;43.852;25.952;2023-05-01T06:45:44;101506.00;;;21.63;42.78
71559;BME280;59382;43.852;25.952;2023-05-01T06:48:09;101526.81;;;21.96;42.21
71559;BME280;59382;43.852;25.952;2023-05-01T06:50:35;101512.53;;;22.04;42.23
71559;BME280;59382;43.852;25.952;2023-05-01T06:53:01;101515.09;;;22.20;41.30
71559;BME280;59382;43.852;25.952;2023-05-01T06:55:27;101524.19;;;22.21;40.65
71559;BME280;59382;43.852;25.952;2023-05-01T06:57:56;101530.25;;;22.28;40.67
71559;BME280;59382;43.852;25.952;2023-05-01T07:00:22;101512.69;;;22.34;40.15
71559;BME280;59382;43.852;25.952;2023-05-01T07:02:48;101527.56;;;22.43;40.35
71559;BME280;59382;43.852;25.952;2023-05-01T07:05:13;101531.69;;;22.45;40.14
71559;BME280;59382;43.852;25.952;2023-05-01T07:07:39;101522.63;;;22.45;40.08
71559;BME280;59382;43.852;25.952;2023-05-01T07:10:05;101549.66;;;22.68;39.90
71559;BME280;59382;43.852;25.952;2023-05-01T07:12:30;101527.69;;;22.73;39.51
71559;BME280;59382;43.852;25.952;2023-05-01T07:14:56;101533.19;;;22.83;38.66
71559;BME280;59382;43.852;25.952;2023-05-01T07:17:22;101540.94;;;22.91;38.83
71559;BME280;59382;43.852;25.952;2023-05-01T07:19:47;101529.09;;;22.85;38.45
71559;BME280;59382;43.852;25.952;2023-05-01T07:22:14;101556.91;;;23.04;38.28
71559;BME280;59382;43.852;25.952;2023-05-01T07:24:40;101534.34;;;22.97;37.75
71559;BME280;59382;43.852;25.952;2023-05-01T07:27:05;101563.50;;;23.08;37.79
71559;BME280;59382;43.852;25.952;2023-05-01T07:29:31;101560.78;;;23.13;37.52
71559;BME280;59382;43.852;25.952;2023-05-01T07:31:57;101557.47;;;23.01;37.17
71559;BME280;59382;43.852;25.952;2023-05-01T07:34:23;101548.09;;;22.92;37.63
71559;BME280;59382;43.852;25.952;2023-05-01T07:36:48;101559.66;;;23.04;37.71
71559;BME280;59382;43.852;25.952;2023-05-01T07:39:14;101567.13;;;23.13;37.44
71559;BME280;59382;43.852;25.952;2023-05-01T07:41:41;101564.06;;;23.20;37.22
71559;BME280;59382;43.852;25.952;2023-05-01T07:44:07;101550.31;;;23.20;36.79
71559;BME280;59382;43.852;25.952;2023-05-01T07:46:33;101558.59;;;23.15;36.94
71559;BME280;59382;43.852;25.952;2023-05-01T07:49:02;101577.84;;;23.20;36.76
71559;BME280;59382;43.852;25.952;2023-05-01T07:51:30;101559.13;;;23.12;36.56
71559;BME280;59382;43.852;25.952;2023-05-01T07:53:55;101585.03;;;23.26;36.54
71559;BME280;59382;43.852;25.952;2023-05-01T07:56:21;101579.00;;;23.34;36.57
71559;BME280;59382;43.852;25.952;2023-05-01T07:58:46;101579.00;;;23.34;35.79
71559;BME280;59382;43.852;25.952;2023-05-01T08:01:12;101583.16;;;23.32;35.88
71559;BME280;59382;43.852;25.952;2023-05-01T08:03:38;101562.47;;;23.24;36.13
71559;BME280;59382;43.852;25.952;2023-05-01T08:06:04;101576.78;;;23.31;36.58
71559;BME280;59382;43.852;25.952;2023-05-01T08:08:30;101592.22;;;23.42;36.24
71559;BME280;59382;43.852;25.952;2023-05-01T08:10:55;101589.47;;;23.47;35.83
71559;BME280;59382;43.852;25.952;2023-05-01T08:13:21;101583.41;;;23.40;35.86
71559;BME280;59382;43.852;25.952;2023-05-01T08:15:46;101592.78;;;23.49;35.54
71559;BME280;59382;43.852;25.952;2023-05-01T08:18:13;101593.31;;;23.51;35.66
71559;BME280;59382;43.852;25.952;2023-05-01T08:20:45;101602.69;;;23.55;35.48
71559;BME280;59382;43.852;25.952;2023-05-01T08:23:12;101590.00;;;23.54;35.29
71559;BME280;59382;43.852;25.952;2023-05-01T08:25:37;101590.56;;;23.51;35.30
71559;BME280;59382;43.852;25.952;2023-05-01T08:28:03;101588.91;;;23.50;35.07
71559;BME280;59382;43.852;25.952;2023-05-01T08:30:29;101586.69;;;23.42;35.17
71559;BME280;59382;43.852;25.952;2023-05-01T08:32:56;101581.19;;;23.42;35.09
71559;BME280;59382;43.852;25.952;2023-05-01T08:35:21;101586.16;;;23.45;35.17
71559;BME280;59382;43.852;25.952;2023-05-01T08:37:47;101587.53;;;23.53;35.23
71559;BME280;59382;43.852;25.952;2023-05-01T08:40:13;101593.59;;;23.65;35.34
71559;BME280;59382;43.852;25.952;2023-05-01T08:42:39;101594.69;;;23.79;34.56
71559;BME280;59382;43.852;25.952;2023-05-01T08:45:09;101577.34;;;23.73;34.70
71559;BME280;59382;43.852;25.952;2023-05-01T08:47:36;101604.31;;;23.91;34.72
71559;BME280;59382;43.852;25.952;2023-05-01T08:50:03;101570.72;;;23.74;34.40
71559;BME280;59382;43.852;25.952;2023-05-01T08:52:34;101601.56;;;23.86;34.51
71559;BME280;59382;43.852;25.952;2023-05-01T08:55:01;101597.44;;;23.79;34.45
71559;BME280;59382;43.852;25.952;2023-05-01T08:57:29;101602.13;;;23.78;34.21
71559;BME280;59382;43.852;25.952;2023-05-01T08:59:56;101601.03;;;23.74;34.02
71559;BME280;59382;43.852;25.952;2023-05-01T09:02:23;101588.91;;;23.70;33.92
71559;BME280;59382;43.852;25.952;2023-05-01T09:04:50;101593.31;;;23.71;34.09
71559;BME280;59382;43.852;25.952;2023-05-01T09:07:16;101599.66;;;23.67;34.18
71559;BME280;59382;43.852;25.952;2023-05-01T09:09:42;101588.38;;;23.53;34.06
71559;BME280;59382;43.852;25.952;2023-05-01T09:12:21;101599.94;;;23.50;33.78
71559;BME280;59382;43.852;25.952;2023-05-01T09:14:49;101601.03;;;23.54;34.26
71559;BME280;59382;43.852;25.952;2023-05-01T09:17:14;101593.31;;;23.66;34.18
71559;BME280;59382;43.852;25.952;2023-05-01T09:19:41;101586.69;;;23.77;34.34
71559;BME280;59382;43.852;25.952;2023-05-01T09:22:10;101580.09;;;23.73;34.37
71559;BME280;59382;43.852;25.952;2023-05-01T09:24:36;101590.25;;;23.83;34.72
71559;BME280;59382;43.852;25.952;2023-05-01T09:27:01;101578.41;;;23.72;34.41
71559;BME280;59382;43.852;25.952;2023-05-01T09:32:21;101577.34;;;23.73;34.55
71559;BME280;59382;43.852;25.952;2023-05-01T09:34:50;101596.03;;;23.91;34.57
71559;BME280;59382;43.852;25.952;2023-05-01T09:37:32;101590.84;;;23.95;34.64
71559;BME280;59382;43.852;25.952;2023-05-01T09:42:30;101597.69;;;24.12;34.46
71559;BME280;59382;43.852;25.952;2023-05-01T09:44:57;101598.22;;;24.09;34.38
71559;BME280;59382;43.852;25.952;2023-05-01T09:47:23;101581.16;;;23.92;34.62
71559;BME280;59382;43.852;25.952;2023-05-01T09:49:54;101588.63;;;23.82;34.63
71559;BME280;59382;43.852;25.952;2023-05-01T09:52:20;101600.19;;;23.84;34.74
71559;BME280;59382;43.852;25.952;2023-05-01T09:54:45;101592.19;;;23.82;35.11
71559;BME280;59382;43.852;25.952;2023-05-01T09:57:11;101599.63;;;23.87;35.16
71559;BME280;59382;43.852;25.952;2023-05-01T09:59:37;101590.00;;;23.74;34.64
71559;BME280;59382;43.852;25.952;2023-05-01T10:02:03;101602.69;;;23.70;34.95
71559;BME280;59382;43.852;25.952;2023-05-01T10:04:38;101587.25;;;23.59;35.13
71559;BME280;59382;43.852;25.952;2023-05-01T10:07:11;101591.66;;;23.65;34.48
71559;BME280;59382;43.852;25.952;2023-05-01T10:09:38;101577.63;;;23.57;34.73
71559;BME280;59382;43.852;25.952;2023-05-01T10:12:03;101592.22;;;23.62;34.83
71559;BME280;59382;43.852;25.952;2023-05-01T10:14:29;101583.94;;;23.62;34.87
71559;BME280;59382;43.852;25.952;2023-05-01T10:16:58;101562.19;;;23.56;34.23
71559;BME280;59382;43.852;25.952;2023-05-01T10:19:24;101586.16;;;23.50;34.20
71559;BME280;59382;43.852;25.952;2023-05-01T10:21:50;101586.69;;;23.42;34.13
71559;BME280;59382;43.852;25.952;2023-05-01T10:24:15;101589.72;;;23.41;34.02
71559;BME280;59382;43.852;25.952;2023-05-01T10:26:42;101570.72;;;23.39;34.23
71559;BME280;59382;43.852;25.952;2023-05-01T10:29:08;101583.41;;;23.50;34.31
71559;BME280;59382;43.852;25.952;2023-05-01T10:31:34;101583.13;;;23.52;33.91
71559;BME280;59382;43.852;25.952;2023-05-01T10:34:00;101563.56;;;23.38;33.99
71559;BME280;59382;43.852;25.952;2023-05-01T10:38:57;101585.59;;;23.28;34.01
71559;BME280;59382;43.852;25.952;2023-05-01T10:44:26;101565.19;;;23.09;33.88
71559;BME280;59382;43.852;25.952;2023-05-01T10:46:53;101576.19;;;23.09;34.24
71559;BME280;59382;43.852;25.952;2023-05-01T10:49:18;101568.44;;;22.96;34.31
71559;BME280;59382;43.852;25.952;2023-05-01T10:56:56;101563.44;;;22.68;34.30
71559;BME280;59382;43.852;25.952;2023-05-01T10:59:23;101569.47;;;22.65;34.63
71559;BME280;59382;43.852;25.952;2023-05-01T11:01:51;101565.84;;;22.54;34.28
71559;BME280;59382;43.852;25.952;2023-05-01T11:12:06;101570.59;;;22.74;34.08
71559;BME280;59382;43.852;25.952;2023-05-01T11:20:09;101568.94;;;22.68;34.30
71559;BME280;59382;43.852;25.952;2023-05-01T11:22:36;101559.59;;;22.69;33.70
71559;BME280;59382;43.852;25.952;2023-05-01T11:25:03;101570.59;;;22.69;33.92
71559;BME280;59382;43.852;25.952;2023-05-01T11:27:48;101559.84;;;22.62;33.74
71559;BME280;59382;43.852;25.952;2023-05-01T11:30:14;101574.44;;;22.68;33.33
71559;BME280;59382;43.852;25.952;2023-05-01T11:32:42;101558.47;;;22.65;33.06
71559;BME280;59382;43.852;25.952;2023-05-01T11:35:29;101559.31;;;22.65;32.49
71559;BME280;59382;43.852;25.952;2023-05-01T11:37:54;101549.66;;;22.58;32.20
71559;BME280;59382;43.852;25.952;2023-05-01T11:40:31;101557.38;;;22.61;31.70
71559;BME280;59382;43.852;25.952;2023-05-01T11:43:01;101563.16;;;22.64;31.38
71559;BME280;59382;43.852;25.952;2023-05-01T11:45:26;101559.31;;;22.65;30.81
71559;BME280;59382;43.852;25.952;2023-05-01T11:47:52;101551.88;;;22.61;31.15
71559;BME280;59382;43.852;25.952;2023-05-01T11:50:18;101563.44;;;22.68;30.84
71559;BME280;59382;43.852;25.952;2023-05-01T11:52:50;101544.97;;;22.63;30.08
71559;BME280;59382;43.852;25.952;2023-05-01T11:55:20;101553.00;;;22.70;30.49
71559;BME280;59382;43.852;25.952;2023-05-01T11:57:50;101553.25;;;22.68;30.80
71559;BME280;59382;43.852;25.952;2023-05-01T12:00:30;101551.88;;;22.71;31.05
71559;BME280;59382;43.852;25.952;2023-05-01T12:03:12;101527.09;;;22.61;30.82
71559;BME280;59382;43.852;25.952;2023-05-01T12:05:43;101538.69;;;22.73;30.67
71559;BME280;59382;43.852;25.952;2023-05-01T12:08:09;101537.28;;;22.65;29.95
71559;BME280;59382;43.852;25.952;2023-05-01T12:10:36;101543.09;;;22.69;29.94
71559;BME280;59382;43.852;25.952;2023-05-01T12:13:03;101534.28;;;22.67;30.12
71559;BME280;59382;43.852;25.952;2023-05-01T12:15:31;101532.66;;;22.76;29.78
71559;BME280;59382;43.852;25.952;2023-05-01T12:17:58;101520.25;;;22.68;29.42
71559;BME280;59382;43.852;25.952;2023-05-01T12:20:42;101528.53;;;22.73;29.63
71559;BME280;59382;43.852;25.952;2023-05-01T12:23:10;101532.09;;;22.79;29.94
71559;BME280;59382;43.852;25.952;2023-05-01T12:25:37;101525.50;;;22.85;29.87
71559;BME280;59382;43.852;25.952;2023-05-01T12:30:39;101521.66;;;22.86;29.54
71559;BME280;59382;43.852;25.952;2023-05-01T12:33:15;101524.94;;;22.93;29.18
71559;BME280;59382;43.852;25.952;2023-05-01T12:35:41;101523.59;;;22.90;29.40
71559;BME280;59382;43.852;25.952;2023-05-01T12:38:13;101526.88;;;22.87;29.28
71559;BME280;59382;43.852;25.952;2023-05-01T12:40:47;101507.31;;;22.74;29.72
71559;BME280;59382;43.852;25.952;2023-05-01T12:43:14;101506.78;;;22.77;29.64
71559;BME280;59382;43.852;25.952;2023-05-01T12:45:41;101502.91;;;22.68;29.61
71559;BME280;59382;43.852;25.952;2023-05-01T12:48:12;101507.06;;;22.70;29.32
71559;BME280;59382;43.852;25.952;2023-05-01T12:50:41;101505.66;;;22.63;29.44
71559;BME280;59382;43.852;25.952;2023-05-01T12:53:08;101515.28;;;22.65;29.25
71559;BME280;59382;43.852;25.952;2023-05-01T12:55:51;101496.28;;;22.59;29.12
71559;BME280;59382;43.852;25.952;2023-05-01T12:58:17;101501.81;;;22.64;29.45
71559;BME280;59382;43.852;25.952;2023-05-01T13:00:47;101505.13;;;22.76;29.43
71559;BME280;59382;43.852;25.952;2023-05-01T13:03:14;101487.78;;;22.65;29.50
71559;BME280;59382;43.852;25.952;2023-05-01T13:06:00;101505.69;;;22.73;29.44
71559;BME280;59382;43.852;25.952;2023-05-01T13:10:58;101491.91;;;22.68;29.29
71559;BME280;59382;43.852;25.952;2023-05-01T13:13:33;101500.16;;;22.73;29.34
71559;BME280;59382;43.852;25.952;2023-05-01T13:16:06;101502.91;;;22.73;29.70
71559;BME280;59382;43.852;25.952;2023-05-01T13:18:42;101502.38;;;22.76;29.54
71559;BME280;59382;43.852;25.952;2023-05-01T13:21:09;101496.88;;;22.76;29.74
71559;BME280;59382;43.852;25.952;2023-05-01T13:23:38;101492.75;;;22.78;29.66
71559;BME280;59382;43.852;25.952;2023-05-01T13:26:08;101504.03;;;22.82;29.38
71559;BME280;59382;43.852;25.952;2023-05-01T13:28:42;101488.06;;;22.74;29.07